Dammeron Valley, UT (84783)

1:57 AM MDT on March 30, 2015 (GMT -0600)
Pinion Hills | | Change Station
CLOSE
Current Station
Personal Weather Station
Location: Dammeron Valley, UT
Elevation: 4606 ft
Nearby Weather Stations

Elev 4606 ft 37.30 °N, 113.68 °W | Updated 5 minutes ago

Clear
Clear
43.1 °F
Feels Like 43 °F
N
1.7
Wind Variable Wind from ESE

Today
High -- | Low -- °F
--% Chance of Precip.
Yesterday
High -- | Low -- °F
Precip. -- in
7:23 AM 7:55 PM
Waxing Gibbous, 78% visible
Pressure 30.09 in
Visibility 10.0 miles
Clouds Clear
Windchill 43 °F
Dew Point 27 °F
Humidity 52%
Rainfall 0.00 in
Snow Depth Not available.
UV 0 out of 12
Pollen 10.20 out of 12
Air Quality Not available.
Flu Activity Not available.
METAR KSGU 300735Z AUTO 11004KT 10SM CLR 16/M04 A3009 RMK AO1

More Conditions Fewer Conditions

Pressure 30.09 in
Visibility 10.0 miles
Clouds Clear
Windchill 43 °F
Dew Point 27 °F
Humidity 52%
Rainfall 0.00 in
Snow Depth Not available.
UV 0 out of 12
Pollen 10.20 out of 12
Air Quality Not available.
Flu Activity Not available.
METAR KSGU 300735Z AUTO 11004KT 10SM CLR 16/M04 A3009 RMK AO1

More Conditions Fewer Conditions

10-Day Weather Forecast

Almanac

Astronomy

Mar. 30, 2015 Rise Set
Actual Time
Civil Twilight
Nautical Twilight
Astronomical Twilight
Moon
Length of Visible Light
Length of Day
Tomorrow will be .
, % of the Moon is Illuminated

Today's Extremes

State Highs State Lows

Community

WunderPhotos

Upload Photos

1,809,449 photos uploaded!

WunderBlogs® & News

Nearby

Air Quality

  Air Quality AQ Index Pollutant
Not available.

Snow Depth

Station Depth Elevation

Earthquake Activity

City Distance Mag. Time & Date
Minimum magnitude displayed is 2.5.

Coastal Water Temperatures

Place Temperature

Stations

Nearby Weather Stations

Station Location Temp. Windchill Dew Point Humidity Wind Precip. Elev Updated Type